Авиационная погода в аэропорту Бесовец

Регион: 
Погода METAR: 
ULPB 221800Z AUTO 10002MPS 8000 -SN M07/M09 Q1020 RMK QFE761/1015
Время наблюдения
2022-01-22T18:00:00Z
Температура C
-7.0
Точка росы
-9.0
Направление ветра
100
Скорость ветра (узлы)
4
Метео видимость
4.97
Облачность
Нижняя граница облачности (футы)
Явления погоды
-SN
Условия полета
Аэропорт подробнее: 
-SN – слабый снег;